createdAt,value
2023-03-04T00:00:08.765Z,67.77
2023-03-04T00:02:44.666Z,67.48
2023-03-04T00:05:17.344Z,68.00
2023-03-04T00:07:50.156Z,67.71
2023-03-04T00:10:24.519Z,67.79
2023-03-04T00:12:57.218Z,67.70
2023-03-04T00:15:29.882Z,68.37
2023-03-04T00:18:02.688Z,68.43
2023-03-04T00:20:35.390Z,68.23
2023-03-04T00:23:08.234Z,68.18
2023-03-04T00:25:43.625Z,67.86
2023-03-04T00:28:16.774Z,67.43
2023-03-04T00:30:49.567Z,67.76
2023-03-04T00:33:22.337Z,68.35
2023-03-04T00:35:55.178Z,68.13
2023-03-04T00:38:28.843Z,67.93
2023-03-04T00:41:03.065Z,68.29
2023-03-04T00:43:35.819Z,67.81
2023-03-04T00:46:08.673Z,67.93
2023-03-04T00:48:41.577Z,66.88
2023-03-04T00:51:15.497Z,66.73
2023-03-04T00:53:48.763Z,67.28
2023-03-04T00:56:25.568Z,67.06
2023-03-04T00:58:58.327Z,67.15
2023-03-04T01:01:31.513Z,67.49
2023-03-04T01:04:04.384Z,66.83
2023-03-04T01:06:37.119Z,66.55
2023-03-04T01:09:10.002Z,65.96
2023-03-04T01:11:44.039Z,66.20
2023-03-04T01:14:17.494Z,66.33
2023-03-04T01:16:50.909Z,66.40
2023-03-04T01:19:23.817Z,66.06
2023-03-04T01:21:56.530Z,66.13
2023-03-04T01:24:29.961Z,66.42
2023-03-04T01:27:04.138Z,65.72
2023-03-04T01:29:36.960Z,66.21
2023-03-04T01:32:09.585Z,65.86
2023-03-04T01:34:42.520Z,66.12
2023-03-04T01:37:15.247Z,65.98
2023-03-04T01:39:48.378Z,66.44
2023-03-04T01:42:24.626Z,67.88
2023-03-04T01:44:57.731Z,66.56
2023-03-04T01:47:32.861Z,66.33
2023-03-04T01:50:12.558Z,65.34
2023-03-04T01:52:45.291Z,66.62
2023-03-04T01:55:20.302Z,65.75
2023-03-04T01:57:54.724Z,66.41
2023-03-04T02:00:32.024Z,65.32
2023-03-04T02:03:07.835Z,65.76
2023-03-04T02:05:43.544Z,66.24
2023-03-04T02:08:17.417Z,66.24
2023-03-04T02:10:52.224Z,66.61
2023-03-04T02:13:26.589Z,66.37
2023-03-04T02:15:59.354Z,66.20
2023-03-04T02:18:32.138Z,66.36
2023-03-04T02:21:12.775Z,66.42
2023-03-04T02:23:52.301Z,66.00
2023-03-04T02:26:28.447Z,66.47
2023-03-04T02:29:03.497Z,65.74
2023-03-04T02:31:39.688Z,67.38
2023-03-04T02:34:15.226Z,65.64
2023-03-04T02:36:49.487Z,65.42
2023-03-04T02:39:28.432Z,65.68
2023-03-04T02:42:05.031Z,65.41
2023-03-04T02:44:41.752Z,66.18
2023-03-04T02:47:17.811Z,65.78
2023-03-04T02:49:50.630Z,65.68
2023-03-04T02:52:26.837Z,66.84
2023-03-04T02:54:59.780Z,66.90
2023-03-04T02:57:34.083Z,66.12
2023-03-04T03:00:09.678Z,66.69
2023-03-04T03:02:42.438Z,65.66
2023-03-04T03:05:15.363Z,66.50
2023-03-04T03:07:48.665Z,66.01
2023-03-04T03:10:21.768Z,66.03
2023-03-04T03:12:56.038Z,65.38
2023-03-04T03:15:28.896Z,66.00
2023-03-04T03:18:01.929Z,66.00
2023-03-04T03:20:34.707Z,66.07
2023-03-04T03:23:08.384Z,66.04
2023-03-04T03:25:41.703Z,66.24
2023-03-04T03:28:15.871Z,66.40
2023-03-04T03:30:48.597Z,65.95
2023-03-04T03:33:21.511Z,66.64
2023-03-04T03:35:54.234Z,66.24
2023-03-04T03:38:27.256Z,66.14
2023-03-04T03:40:59.836Z,66.59
2023-03-04T03:43:34.178Z,65.73
2023-03-04T03:46:07.008Z,65.90
2023-03-04T03:48:39.767Z,66.79
2023-03-04T03:51:12.502Z,66.81
2023-03-04T03:53:45.504Z,66.18
2023-03-04T03:56:18.160Z,66.01
2023-03-04T03:58:52.682Z,66.45
2023-03-04T04:01:25.413Z,65.92
2023-03-04T04:03:58.167Z,66.88
2023-03-04T04:06:30.877Z,66.58
2023-03-04T04:09:03.931Z,66.14
2023-03-04T04:11:36.536Z,66.78
2023-03-04T04:14:14.012Z,67.11
2023-03-04T04:16:46.919Z,66.72
2023-03-04T04:19:20.117Z,67.41
2023-03-04T04:21:52.815Z,66.60
2023-03-04T04:24:25.574Z,67.19
2023-03-04T04:26:58.525Z,67.18
2023-03-04T04:29:33.032Z,66.78
2023-03-04T04:32:06.614Z,66.63
2023-03-04T04:34:39.423Z,66.72
2023-03-04T04:37:12.211Z,66.99
2023-03-04T04:39:45.588Z,67.02
2023-03-04T04:42:18.651Z,67.01
2023-03-04T04:44:52.992Z,66.36
2023-03-04T04:47:25.888Z,66.85
2023-03-04T04:49:58.706Z,66.83
2023-03-04T04:52:31.596Z,67.19
2023-03-04T04:55:04.417Z,66.51
2023-03-04T04:57:37.852Z,67.20
2023-03-04T05:00:13.443Z,66.61
2023-03-04T05:02:46.197Z,66.70
2023-03-04T05:05:19.068Z,66.62
2023-03-04T05:07:51.595Z,66.92
2023-03-04T05:10:24.308Z,66.90
2023-03-04T05:12:56.971Z,66.77
2023-03-04T05:15:31.227Z,67.21
2023-03-04T05:18:03.954Z,67.02
2023-03-04T05:20:37.105Z,67.65
2023-03-04T05:23:09.818Z,66.88
2023-03-04T05:25:42.805Z,67.53
2023-03-04T05:28:15.912Z,67.17
2023-03-04T05:30:50.770Z,67.25
2023-03-04T05:33:23.589Z,66.42
2023-03-04T05:35:56.497Z,66.78
2023-03-04T05:38:29.156Z,67.08
2023-03-04T05:41:03.580Z,67.20
2023-03-04T05:43:38.422Z,67.21
2023-03-04T05:46:16.038Z,67.43
2023-03-04T05:48:48.815Z,67.51
2023-03-04T05:51:22.156Z,66.78
2023-03-04T05:53:54.888Z,67.15
2023-03-04T05:56:28.225Z,67.34
2023-03-04T05:59:01.022Z,66.74
2023-03-04T06:01:35.186Z,67.95
2023-03-04T06:04:08.058Z,66.97
2023-03-04T06:06:40.822Z,66.95
2023-03-04T06:09:13.685Z,67.08
2023-03-04T06:11:46.590Z,66.65
2023-03-04T06:14:19.502Z,67.17
2023-03-04T06:16:53.774Z,66.94
2023-03-04T06:19:26.464Z,67.22
2023-03-04T06:21:59.157Z,67.13
2023-03-04T06:24:31.902Z,67.47
2023-03-04T06:27:05.039Z,67.75
2023-03-04T06:29:37.990Z,67.33
2023-03-04T06:32:12.082Z,67.43
2023-03-04T06:34:44.781Z,67.60
2023-03-04T06:37:17.811Z,67.76
2023-03-04T06:39:50.638Z,67.79
2023-03-04T06:42:23.509Z,67.58
2023-03-04T06:44:56.280Z,67.49
2023-03-04T06:47:30.599Z,67.74
2023-03-04T06:50:04.673Z,67.61
2023-03-04T06:52:37.605Z,67.32
2023-03-04T06:55:12.987Z,67.50
2023-03-04T06:57:48.460Z,67.61
2023-03-04T07:00:23.912Z,67.97
2023-03-04T07:02:59.446Z,67.24
2023-03-04T07:05:32.170Z,68.36
2023-03-04T07:08:06.111Z,67.74
2023-03-04T07:10:38.748Z,67.65
2023-03-04T07:13:11.536Z,68.16
2023-03-04T07:15:44.197Z,67.95
2023-03-04T07:18:18.338Z,67.06
2023-03-04T07:20:53.573Z,67.28
2023-03-04T07:23:26.444Z,67.93
2023-03-04T07:25:59.771Z,67.52
2023-03-04T07:28:32.705Z,67.33
2023-03-04T07:31:21.560Z,67.69
2023-03-04T07:33:57.979Z,67.78
2023-03-04T07:36:30.993Z,67.52
2023-03-04T07:39:03.730Z,67.89
2023-03-04T07:41:37.280Z,67.95
2023-03-04T07:44:12.768Z,67.63
2023-03-04T07:46:45.840Z,67.47
2023-03-04T07:49:20.137Z,67.62
2023-03-04T07:51:52.857Z,68.01
2023-03-04T07:54:25.923Z,67.80
2023-03-04T07:56:58.583Z,67.85
2023-03-04T07:59:31.870Z,67.97
2023-03-04T08:02:04.918Z,68.42
2023-03-04T08:04:39.137Z,68.68
2023-03-04T08:07:12.162Z,68.20
2023-03-04T08:09:45.130Z,68.27
2023-03-04T08:12:17.813Z,68.23
2023-03-04T08:14:50.746Z,68.18
2023-03-04T08:17:23.445Z,68.10
2023-03-04T08:19:57.699Z,68.12
2023-03-04T08:22:30.957Z,68.42
2023-03-04T08:25:03.757Z,68.52
2023-03-04T08:27:37.289Z,68.72
2023-03-04T08:30:13.564Z,68.15
2023-03-04T08:32:46.355Z,68.27
2023-03-04T08:35:20.773Z,68.10
2023-03-04T08:37:53.535Z,67.58
2023-03-04T08:40:27.218Z,68.58
2023-03-04T08:43:00.419Z,69.10
2023-03-04T08:45:33.181Z,70.14
2023-03-04T08:48:06.089Z,69.11
2023-03-04T08:50:40.304Z,69.08
2023-03-04T08:53:13.440Z,69.95
2023-03-04T08:55:46.725Z,68.19
2023-03-04T08:58:19.972Z,69.78
2023-03-04T09:00:52.948Z,69.11
2023-03-04T09:03:27.465Z,69.01
2023-03-04T09:06:02.656Z,68.38
2023-03-04T09:08:36.074Z,68.56
2023-03-04T09:11:09.249Z,68.63
2023-03-04T09:13:42.196Z,68.98
2023-03-04T09:16:16.160Z,68.06
2023-03-04T09:18:49.061Z,68.77
2023-03-04T09:21:23.033Z,69.57
2023-03-04T09:23:55.859Z,69.92
2023-03-04T09:26:29.441Z,69.48
2023-03-04T09:29:02.670Z,69.09
2023-03-04T09:31:35.587Z,68.61
2023-03-04T09:34:08.302Z,69.16
2023-03-04T09:36:42.343Z,69.97
2023-03-04T09:39:15.112Z,70.60
2023-03-04T09:41:50.462Z,70.37
2023-03-04T09:44:26.883Z,71.16
2023-03-04T09:47:02.478Z,69.88
2023-03-04T09:49:45.371Z,70.54
2023-03-04T09:52:34.345Z,69.25
2023-03-04T09:55:18.728Z,69.98
2023-03-04T09:57:54.950Z,70.95
2023-03-04T10:00:39.874Z,70.15
2023-03-04T10:03:17.700Z,68.32
2023-03-04T10:05:56.145Z,71.50
2023-03-04T10:08:41.959Z,71.53
2023-03-04T10:11:17.889Z,71.09
2023-03-04T10:14:01.330Z,71.44
2023-03-04T10:16:41.443Z,72.12
2023-03-04T10:19:29.770Z,71.01
2023-03-04T10:22:03.039Z,72.48
2023-03-04T10:24:37.678Z,72.72
2023-03-04T10:27:17.241Z,72.28
2023-03-04T10:29:50.207Z,72.19
2023-03-04T10:32:22.791Z,71.56
2023-03-04T10:34:55.546Z,72.09
2023-03-04T10:37:44.970Z,70.89
2023-03-04T10:40:24.229Z,72.66
2023-03-04T10:42:57.292Z,72.00
2023-03-04T10:45:35.993Z,71.49
2023-03-04T10:48:20.270Z,69.10
2023-03-04T10:50:53.108Z,70.07
2023-03-04T10:53:34.520Z,70.70
2023-03-04T10:56:36.082Z,71.30
2023-03-04T10:59:32.065Z,73.08
2023-03-04T11:02:16.832Z,74.94
2023-03-04T11:04:55.460Z,71.38
2023-03-04T11:07:28.646Z,72.03
2023-03-04T11:10:10.608Z,70.70
2023-03-04T11:12:50.727Z,71.15
2023-03-04T11:15:27.599Z,71.83
2023-03-04T11:18:03.847Z,70.55
2023-03-04T11:20:41.486Z,70.08
2023-03-04T11:23:18.159Z,71.92
2023-03-04T11:25:57.212Z,71.23
2023-03-04T11:28:41.060Z,71.06
2023-03-04T11:31:17.342Z,70.42
2023-03-04T11:33:56.426Z,71.78
2023-03-04T11:36:36.362Z,68.90
2023-03-04T11:39:18.298Z,71.99
2023-03-04T11:41:56.365Z,70.32
2023-03-04T11:44:31.825Z,70.22
2023-03-04T11:47:17.893Z,69.94
2023-03-04T11:50:16.451Z,69.18
2023-03-04T11:53:09.697Z,66.90
2023-03-04T11:55:46.824Z,70.22
2023-03-04T11:58:50.007Z,71.48
2023-03-04T12:01:29.472Z,67.92
2023-03-04T12:04:16.394Z,68.85
2023-03-04T12:07:03.854Z,66.51
2023-03-04T12:09:50.954Z,66.87
2023-03-04T12:12:44.640Z,66.31
2023-03-04T12:15:22.188Z,67.39
2023-03-04T12:18:22.752Z,71.54
2023-03-04T12:21:06.386Z,68.50
2023-03-04T12:24:01.157Z,71.05
2023-03-04T12:26:39.444Z,71.46
2023-03-04T12:29:20.665Z,68.79
2023-03-04T12:31:59.360Z,72.36
2023-03-04T12:34:53.608Z,72.96
2023-03-04T12:37:38.376Z,69.78
2023-03-04T12:40:33.794Z,71.02
2023-03-04T12:43:20.486Z,71.12
2023-03-04T12:46:03.849Z,71.33
2023-03-04T12:48:40.238Z,71.40
2023-03-04T12:51:31.087Z,71.83
2023-03-04T12:54:19.518Z,70.61
2023-03-04T12:56:56.040Z,70.49
2023-03-04T12:59:38.893Z,71.36
2023-03-04T13:02:36.627Z,70.65
2023-03-04T13:05:23.981Z,70.89
2023-03-04T13:08:08.988Z,71.24
2023-03-04T13:10:42.130Z,71.94
2023-03-04T13:13:36.371Z,71.12
2023-03-04T13:16:32.473Z,71.51
2023-03-04T13:19:48.478Z,70.98
2023-03-04T13:22:44.202Z,72.41
2023-03-04T13:25:40.180Z,72.24
2023-03-04T13:28:25.047Z,72.19
2023-03-04T13:31:26.497Z,71.92
2023-03-04T13:34:04.578Z,72.35
2023-03-04T13:36:59.113Z,71.36
2023-03-04T13:39:33.886Z,70.82
2023-03-04T13:42:42.550Z,71.73
2023-03-04T13:45:36.477Z,71.36
2023-03-04T13:48:26.710Z,71.92
2023-03-04T13:51:00.108Z,71.51
2023-03-04T13:53:42.185Z,71.03
2023-03-04T13:56:28.774Z,70.92
2023-03-04T13:59:27.803Z,71.43
2023-03-04T14:02:11.737Z,71.67
2023-03-04T14:04:47.537Z,69.56
2023-03-04T14:07:25.364Z,71.02
2023-03-04T14:10:01.127Z,71.36
2023-03-04T14:12:36.498Z,71.11
2023-03-04T14:15:23.306Z,70.97
2023-03-04T14:17:58.602Z,70.86
2023-03-04T14:20:34.241Z,71.58
2023-03-04T14:23:26.202Z,70.76
2023-03-04T14:26:07.821Z,70.87
2023-03-04T14:28:45.417Z,70.98
2023-03-04T14:31:22.070Z,70.58
2023-03-04T14:33:59.708Z,70.24
2023-03-04T14:36:34.901Z,70.15
2023-03-04T14:39:08.572Z,70.05
2023-03-04T14:41:43.211Z,69.14
2023-03-04T14:44:24.471Z,69.34
2023-03-04T14:47:08.432Z,70.52
2023-03-04T14:49:41.681Z,69.64
2023-03-04T14:52:38.018Z,69.73
2023-03-04T14:55:22.264Z,69.51
2023-03-04T14:57:59.239Z,68.94
2023-03-04T15:00:33.754Z,69.86
2023-03-04T15:03:22.002Z,69.89
2023-03-04T15:05:55.637Z,70.45
2023-03-04T15:08:32.773Z,70.45
2023-03-04T15:11:07.622Z,69.67
2023-03-04T15:13:42.506Z,70.76
2023-03-04T15:16:16.646Z,70.85
2023-03-04T15:18:59.765Z,70.17
2023-03-04T15:21:40.211Z,69.86
2023-03-04T15:24:15.372Z,70.04
2023-03-04T15:26:50.243Z,70.25
2023-03-04T15:29:23.606Z,70.25
2023-03-04T15:31:56.405Z,70.52
2023-03-04T15:34:30.922Z,69.51
2023-03-04T15:37:04.451Z,69.89
2023-03-04T15:39:37.414Z,69.89
2023-03-04T15:42:13.238Z,70.05
2023-03-04T15:44:46.556Z,69.96
2023-03-04T15:47:19.316Z,69.75
2023-03-04T15:49:53.602Z,69.92
2023-03-04T15:52:26.374Z,69.92
2023-03-04T15:55:00.438Z,70.06
2023-03-04T15:57:34.840Z,69.89
2023-03-04T16:00:09.264Z,69.89
2023-03-04T16:02:44.302Z,69.28
2023-03-04T16:05:18.802Z,69.14
2023-03-04T16:07:53.439Z,69.56
2023-03-04T16:10:28.496Z,69.81
2023-03-04T16:13:01.181Z,69.54
2023-03-04T16:15:33.962Z,70.06
2023-03-04T16:18:08.243Z,71.01
2023-03-04T16:20:45.740Z,70.65
2023-03-04T16:23:21.888Z,68.84
2023-03-04T16:25:56.859Z,70.36
2023-03-04T16:28:29.615Z,70.13
2023-03-04T16:31:02.374Z,69.78
2023-03-04T16:33:35.066Z,70.22
2023-03-04T16:36:15.433Z,70.50
2023-03-04T16:38:48.709Z,69.78
2023-03-04T16:41:24.218Z,70.33
2023-03-04T16:43:59.804Z,70.47
2023-03-04T16:46:32.781Z,70.42
2023-03-04T16:49:05.632Z,70.05
2023-03-04T16:51:44.492Z,70.07
2023-03-04T16:54:22.653Z,70.00
2023-03-04T16:56:55.676Z,70.89
2023-03-04T16:59:29.428Z,69.55
2023-03-04T17:02:02.465Z,69.16
2023-03-04T17:04:35.123Z,71.97
2023-03-04T17:07:09.150Z,70.06
2023-03-04T17:09:42.481Z,69.79
2023-03-04T17:12:15.750Z,69.74
2023-03-04T17:14:48.472Z,70.89
2023-03-04T17:17:21.192Z,69.42
2023-03-04T17:19:53.900Z,69.81
2023-03-04T17:22:28.089Z,69.99
2023-03-04T17:25:02.651Z,69.87
2023-03-04T17:27:35.365Z,70.84
2023-03-04T17:30:11.834Z,70.01
2023-03-04T17:32:44.571Z,70.03
2023-03-04T17:35:17.383Z,69.85
2023-03-04T17:37:51.525Z,69.63
2023-03-04T17:40:24.261Z,69.85
2023-03-04T17:42:56.938Z,71.03
2023-03-04T17:45:29.645Z,70.48
2023-03-04T17:48:02.347Z,70.11
2023-03-04T17:50:35.328Z,70.10
2023-03-04T17:53:09.850Z,69.79
2023-03-04T17:55:49.176Z,69.88
2023-03-04T17:58:22.434Z,70.77
2023-03-04T18:01:00.685Z,69.97
2023-03-04T18:03:34.182Z,69.93
2023-03-04T18:06:07.304Z,70.04
2023-03-04T18:08:41.774Z,70.05
2023-03-04T18:11:14.741Z,70.21
2023-03-04T18:13:47.904Z,70.87
2023-03-04T18:16:26.578Z,70.69
2023-03-04T18:19:02.056Z,69.59
2023-03-04T18:21:35.373Z,69.97
2023-03-04T18:24:10.369Z,70.10
2023-03-04T18:26:43.136Z,70.32
2023-03-04T18:29:16.147Z,70.21
2023-03-04T18:31:48.832Z,70.09
2023-03-04T18:34:21.551Z,70.13
2023-03-04T18:36:54.203Z,69.55
2023-03-04T18:39:28.256Z,69.51
2023-03-04T18:42:02.607Z,69.78
2023-03-04T18:44:35.432Z,69.65
2023-03-04T18:47:08.234Z,69.40
2023-03-04T18:49:42.660Z,70.18
2023-03-04T18:52:16.032Z,69.63
2023-03-04T18:54:50.211Z,70.37
2023-03-04T18:57:23.195Z,68.80
2023-03-04T18:59:58.553Z,68.59
2023-03-04T19:02:37.700Z,70.06
2023-03-04T19:05:15.248Z,68.83
2023-03-04T19:07:48.869Z,68.61
2023-03-04T19:10:23.833Z,68.50
2023-03-04T19:12:59.324Z,69.19
2023-03-04T19:15:32.302Z,69.20
2023-03-04T19:18:05.626Z,69.19
2023-03-04T19:20:40.824Z,68.07
2023-03-04T19:23:14.287Z,68.53
2023-03-04T19:25:51.241Z,70.23
2023-03-04T19:28:24.280Z,70.10
2023-03-04T19:30:59.286Z,70.30
2023-03-04T19:33:32.272Z,70.98
2023-03-04T19:36:05.407Z,70.65
2023-03-04T19:38:38.413Z,70.21
2023-03-04T19:41:13.218Z,69.24
2023-03-04T19:43:46.040Z,69.48
2023-03-04T19:46:18.896Z,68.55
2023-03-04T19:48:51.884Z,68.73
2023-03-04T19:51:26.248Z,68.11
2023-03-04T19:53:59.561Z,68.83
2023-03-04T19:56:33.629Z,69.88
2023-03-04T19:59:06.470Z,70.13
2023-03-04T20:01:39.487Z,69.09
2023-03-04T20:04:13.373Z,68.38
2023-03-04T20:06:47.627Z,69.24
2023-03-04T20:09:21.405Z,68.90
2023-03-04T20:11:58.851Z,68.42
2023-03-04T20:14:33.867Z,68.50
2023-03-04T20:17:07.589Z,69.33
2023-03-04T20:19:40.599Z,69.09
2023-03-04T20:22:13.466Z,68.13
2023-03-04T20:24:46.069Z,68.81
2023-03-04T20:27:20.312Z,68.22
2023-03-04T20:29:53.336Z,68.06
2023-03-04T20:32:25.887Z,68.56
2023-03-04T20:34:58.727Z,69.98
2023-03-04T20:37:31.750Z,68.54
2023-03-04T20:40:04.774Z,68.11
2023-03-04T20:42:38.989Z,68.22
2023-03-04T20:45:12.679Z,68.13
2023-03-04T20:47:45.594Z,68.24
2023-03-04T20:50:18.837Z,68.48
2023-03-04T20:52:51.551Z,67.88
2023-03-04T20:55:24.324Z,68.64
2023-03-04T20:57:58.424Z,68.70
2023-03-04T21:00:31.063Z,67.72
2023-03-04T21:03:03.849Z,68.06
2023-03-04T21:05:36.526Z,68.29
2023-03-04T21:08:09.985Z,68.09
2023-03-04T21:10:42.650Z,68.30
2023-03-04T21:13:20.339Z,68.57
2023-03-04T21:15:53.802Z,68.48
2023-03-04T21:18:29.538Z,68.89
2023-03-04T21:21:02.690Z,68.50
2023-03-04T21:23:38.388Z,68.44
2023-03-04T21:26:11.221Z,68.61
2023-03-04T21:28:45.303Z,68.79
2023-03-04T21:31:20.650Z,68.70
2023-03-04T21:33:55.403Z,69.02
2023-03-04T21:36:28.095Z,69.20
2023-03-04T21:39:01.009Z,69.02
2023-03-04T21:41:33.524Z,68.84
2023-03-04T21:44:07.648Z,68.51
2023-03-04T21:46:40.786Z,69.14
2023-03-04T21:49:14.427Z,68.60
2023-03-04T21:51:47.130Z,68.57
2023-03-04T21:54:19.909Z,68.71
2023-03-04T21:56:52.665Z,68.79
2023-03-04T21:59:26.766Z,69.00
2023-03-04T22:01:59.579Z,68.70
2023-03-04T22:04:32.320Z,68.97
2023-03-04T22:07:04.982Z,69.10
2023-03-04T22:09:37.655Z,69.34
2023-03-04T22:12:10.375Z,69.59
2023-03-04T22:14:44.569Z,69.03
2023-03-04T22:17:17.519Z,68.61
2023-03-04T22:19:51.177Z,68.96
2023-03-04T22:22:23.834Z,69.04
2023-03-04T22:24:59.376Z,68.79
2023-03-04T22:27:32.735Z,69.13
2023-03-04T22:30:07.949Z,68.78
2023-03-04T22:32:40.728Z,68.84
2023-03-04T22:35:13.552Z,69.09
2023-03-04T22:37:46.250Z,68.71
2023-03-04T22:40:19.267Z,69.08
2023-03-04T22:42:52.330Z,69.13
2023-03-04T22:45:28.417Z,69.25
2023-03-04T22:48:01.128Z,69.53
2023-03-04T22:50:36.045Z,69.41
2023-03-04T22:53:08.668Z,69.62
2023-03-04T22:55:41.473Z,69.60
2023-03-04T22:58:14.313Z,69.06
2023-03-04T23:00:48.462Z,68.83
2023-03-04T23:03:21.757Z,69.47
2023-03-04T23:06:02.732Z,69.27
2023-03-04T23:08:36.025Z,69.02
2023-03-04T23:11:10.309Z,68.89
2023-03-04T23:13:43.428Z,68.73
2023-03-04T23:16:18.743Z,69.01
2023-03-04T23:18:51.762Z,69.58
2023-03-04T23:21:28.510Z,69.65
2023-03-04T23:24:02.258Z,69.06
2023-03-04T23:26:38.752Z,69.25
2023-03-04T23:29:14.482Z,69.36
2023-03-04T23:31:48.671Z,69.73
2023-03-04T23:34:22.041Z,69.22
2023-03-04T23:36:54.992Z,69.21
2023-03-04T23:39:27.542Z,69.83
2023-03-04T23:42:00.241Z,70.05
2023-03-04T23:44:33.104Z,69.76
2023-03-04T23:47:08.031Z,69.85
2023-03-04T23:49:40.657Z,70.05
2023-03-04T23:52:13.404Z,69.58
2023-03-04T23:54:46.045Z,69.98
2023-03-04T23:57:18.967Z,69.65
2023-03-04T23:59:51.709Z,69.94
